Time;durP1;ratioP1;P1;durP2;ratioP2;P2;SDS_P1;SDS_P2;PMS_P1;PMS_P2;Temp;Humidity;BMP_temperature;BMP_pressure;BME280_temperature;BME280_humidity;BME280_pressure;Samples;Min_cycle;Max_cycle;Signal;HPM_P1;HPM_P2
2022/04/09 00:01:28;;;;;;;;;128.80;117.60;24.30;99.90;;;;;;5059836;28;9744;-68
2022/04/09 00:03:55;;;;;;;;;116.40;114.00;24.40;99.90;;;;;;5060283;28;8861;-69
2022/04/09 00:06:21;;;;;;;;;130.40;120.80;24.40;99.90;;;;;;5039345;28;9225;-68
2022/04/09 00:08:48;;;;;;;;;137.40;120.80;24.40;99.90;;;;;;5039806;28;8768;-69
2022/04/09 00:11:15;;;;;;;;;133.20;117.80;24.40;99.90;;;;;;5039719;28;8745;-68
2022/04/09 00:13:41;;;;;;;;;140.40;126.60;24.30;99.90;;;;;;5039982;28;8765;-68
2022/04/09 00:16:08;;;;;;;;;120.20;117.20;24.40;99.90;;;;;;5040437;28;8761;-68
2022/04/09 00:18:35;;;;;;;;;133.80;121.60;24.40;99.90;;;;;;5039537;28;8769;-67
2022/04/09 00:21:02;;;;;;;;;146.40;127.00;24.50;99.90;;;;;;5040014;28;8758;-69
2022/04/09 00:23:29;;;;;;;;;134.40;120.00;24.50;99.90;;;;;;5059410;28;8781;-68
2022/04/09 00:25:55;;;;;;;;;142.60;126.80;24.40;99.90;;;;;;5059590;28;8775;-69
2022/04/09 00:28:22;;;;;;;;;142.80;129.00;24.50;99.90;;;;;;5059937;28;8769;-68
2022/04/09 00:30:49;;;;;;;;;144.80;126.00;24.50;99.90;;;;;;5059752;28;8776;-69
2022/04/09 00:33:16;;;;;;;;;129.80;119.80;24.50;99.90;;;;;;5059723;28;9525;-68
2022/04/09 00:35:42;;;;;;;;;134.80;123.40;24.50;99.90;;;;;;5044617;28;9448;-68
2022/04/09 00:38:09;;;;;;;;;140.80;127.80;24.50;99.90;;;;;;5005403;28;8745;-69
2022/04/09 00:40:36;;;;;;;;;124.80;118.40;24.60;99.90;;;;;;5039477;28;8847;-69
2022/04/09 00:43:03;;;;;;;;;139.80;126.00;24.60;99.90;;;;;;5040195;28;8788;-69
2022/04/09 00:45:29;;;;;;;;;142.40;125.60;24.60;99.90;;;;;;5039399;28;8781;-68
2022/04/09 00:47:56;;;;;;;;;140.80;125.60;24.60;99.90;;;;;;5039187;28;9483;-68
2022/04/09 00:50:23;;;;;;;;;136.80;126.80;24.60;99.90;;;;;;5033327;28;8763;-68
2022/04/09 00:52:53;;;;;;;;;144.40;129.20;24.50;99.90;;;;;;5058679;28;8771;-69
2022/04/09 00:56:12;;;;;;;;;143.00;128.20;24.60;99.90;;;;;;5059461;28;9474;-68
2022/04/09 00:58:17;;;;;;;;;137.20;123.60;24.60;99.90;;;;;;5059619;28;8836;-69
2022/04/09 01:00:44;;;;;;;;;138.00;123.00;24.70;99.90;;;;;;5059304;28;9067;-69
2022/04/09 01:03:19;;;;;;;;;142.20;123.80;24.70;99.90;;;;;;5058696;28;8837;-68
2022/04/09 01:05:48;;;;;;;;;143.00;124.00;24.80;99.90;;;;;;5018336;28;8769;-69
2022/04/09 01:08:15;;;;;;;;;133.00;118.40;24.80;99.90;;;;;;5043787;28;8760;-68
2022/04/09 01:10:44;;;;;;;;;133.60;118.80;24.90;99.90;;;;;;5038695;28;8746;-68
2022/04/09 01:13:11;;;;;;;;;128.60;115.60;24.90;99.90;;;;;;5054520;28;9467;-68
2022/04/09 01:15:38;;;;;;;;;134.80;118.80;24.90;99.90;;;;;;5020964;28;8777;-68
2022/04/09 01:18:04;;;;;;;;;134.80;121.80;24.90;99.90;;;;;;5038601;28;8795;-69
2022/04/09 01:20:31;;;;;;;;;123.40;118.00;24.90;99.90;;;;;;5051521;28;8778;-69
2022/04/09 01:22:58;;;;;;;;;129.00;117.80;24.90;99.90;;;;;;5058105;28;8767;-69
2022/04/09 01:25:24;;;;;;;;;125.80;112.60;25.00;99.90;;;;;;5059110;28;8815;-68
2022/04/09 01:27:51;;;;;;;;;117.20;108.40;25.00;99.90;;;;;;5058708;28;8735;-69
2022/04/09 01:30:18;;;;;;;;;116.60;108.20;25.00;99.90;;;;;;5058428;28;8743;-68
2022/04/09 01:32:45;;;;;;;;;119.60;108.00;25.00;99.90;;;;;;5058318;28;8806;-69
2022/04/09 01:35:12;;;;;;;;;116.20;107.20;25.00;99.90;;;;;;5047466;28;8752;-68
2022/04/09 01:37:38;;;;;;;;;111.60;99.00;25.10;99.90;;;;;;5037991;28;8748;-68
2022/04/09 01:40:05;;;;;;;;;122.80;111.40;25.10;99.90;;;;;;5021200;28;8752;-68
2022/04/09 01:42:32;;;;;;;;;120.00;108.40;25.20;99.90;;;;;;5037885;28;9774;-68
2022/04/09 01:44:59;;;;;;;;;128.80;110.80;25.20;99.90;;;;;;5020620;28;8757;-69
2022/04/09 01:47:25;;;;;;;;;120.00;105.20;25.20;99.90;;;;;;5037802;28;8788;-68
2022/04/09 01:49:52;;;;;;;;;112.80;107.00;25.30;99.90;;;;;;5045802;28;8759;-68
2022/04/09 01:52:19;;;;;;;;;100.60;92.00;25.30;99.90;;;;;;5057968;28;8797;-68
2022/04/09 01:54:46;;;;;;;;;110.00;105.40;25.40;99.90;;;;;;5057864;28;8738;-68
2022/04/09 01:57:13;;;;;;;;;116.00;105.80;25.40;99.90;;;;;;5057701;28;8759;-68
2022/04/09 01:59:43;;;;;;;;;109.20;100.60;25.40;99.90;;;;;;5057651;28;8731;-68
2022/04/09 02:02:10;;;;;;;;;107.40;96.60;25.50;99.90;;;;;;5057594;28;8795;-69
2022/04/09 02:04:36;;;;;;;;;114.80;104.00;25.50;99.90;;;;;;5051425;28;8831;-69
2022/04/09 02:07:03;;;;;;;;;113.60;106.20;25.50;99.90;;;;;;5037986;28;8729;-68
2022/04/09 02:09:30;;;;;;;;;105.20;97.00;25.70;99.90;;;;;;5037581;28;8744;-68
2022/04/09 02:11:56;;;;;;;;;115.40;104.40;25.70;99.90;;;;;;5019938;28;8760;-68
2022/04/09 02:14:23;;;;;;;;;114.20;102.40;25.70;99.90;;;;;;5037092;28;8709;-68
2022/04/09 02:16:50;;;;;;;;;109.80;100.60;25.70;99.90;;;;;;5037422;28;8839;-68
2022/04/09 02:19:17;;;;;;;;;109.20;100.60;25.70;99.90;;;;;;5023079;28;8821;-67
2022/04/09 02:21:44;;;;;;;;;116.20;104.40;25.70;99.90;;;;;;5057192;28;8734;-68
2022/04/09 02:24:13;;;;;;;;;115.00;108.80;25.80;99.90;;;;;;5057113;28;8813;-68
2022/04/09 02:26:40;;;;;;;;;106.80;95.80;25.80;99.90;;;;;;5057334;28;8742;-68
2022/04/09 02:29:07;;;;;;;;;113.00;106.20;25.80;99.90;;;;;;5057137;28;8762;-69
2022/04/09 02:31:34;;;;;;;;;115.20;103.60;25.80;99.90;;;;;;5056907;28;8751;-68
2022/04/09 02:34:01;;;;;;;;;110.60;96.80;25.80;99.90;;;;;;5039038;28;8751;-68
2022/04/09 02:36:29;;;;;;;;;114.80;102.80;25.80;99.90;;;;;;5037118;28;8827;-68
2022/04/09 02:38:56;;;;;;;;;105.80;102.00;25.90;99.90;;;;;;5036996;28;8737;-69
2022/04/09 02:41:22;;;;;;;;;114.80;104.40;25.90;99.90;;;;;;5019315;28;8761;-69
2022/04/09 02:43:49;;;;;;;;;115.20;102.60;26.00;99.90;;;;;;5037087;28;8835;-68
2022/04/09 02:46:16;;;;;;;;;123.80;107.00;26.10;99.90;;;;;;5037829;28;8757;-69
2022/04/09 02:48:44;;;;;;;;;112.60;103.40;26.10;99.90;;;;;;5052450;28;8749;-68
2022/04/09 02:51:12;;;;;;;;;115.40;108.20;26.10;99.90;;;;;;5055422;28;8781;-69
2022/04/09 02:53:39;;;;;;;;;109.40;97.40;26.00;99.90;;;;;;5056976;28;8763;-68
2022/04/09 02:56:05;;;;;;;;;116.60;108.80;26.10;99.90;;;;;;5056588;28;8769;-69
2022/04/09 02:58:32;;;;;;;;;100.40;93.40;26.20;99.90;;;;;;5056806;28;8777;-68
2022/04/09 03:00:59;;;;;;;;;110.20;98.40;26.20;99.90;;;;;;5039693;28;8731;-69
2022/04/09 03:03:26;;;;;;;;;107.60;97.60;26.30;99.90;;;;;;5056613;28;8892;-69
2022/04/09 03:05:52;;;;;;;;;109.00;97.00;26.40;99.90;;;;;;5040450;28;8870;-69
2022/04/09 03:08:19;;;;;;;;;100.40;93.00;26.50;99.90;;;;;;5036436;28;8787;-69
2022/04/09 03:10:46;;;;;;;;;109.80;102.40;26.50;99.90;;;;;;5036677;28;8823;-69
2022/04/09 03:13:12;;;;;;;;;114.20;99.20;26.60;99.90;;;;;;5037001;28;8784;-69
2022/04/09 03:15:41;;;;;;;;;117.20;104.80;26.60;99.90;;;;;;5036136;28;8776;-69
2022/04/09 03:18:10;;;;;;;;;114.00;100.20;26.60;99.90;;;;;;5036370;28;9046;-69
2022/04/09 03:20:38;;;;;;;;;111.80;102.00;26.50;99.90;;;;;;5032706;28;8897;-68
2022/04/09 03:23:04;;;;;;;;;110.80;102.40;26.60;99.90;;;;;;5038770;28;9147;-68
2022/04/09 03:25:31;;;;;;;;;113.40;103.60;26.60;99.90;;;;;;5056153;28;8727;-68
2022/04/09 03:27:58;;;;;;;;;115.40;100.60;26.60;99.90;;;;;;5060295;28;8719;-68
2022/04/09 03:30:24;;;;;;;;;112.20;100.60;26.70;99.90;;;;;;5060197;28;8739;-68
2022/04/09 03:32:51;;;;;;;;;101.20;95.20;26.80;99.90;;;;;;5060727;28;8774;-69
2022/04/09 03:35:18;;;;;;;;;88.80;86.20;26.90;99.90;;;;;;5022472;28;8757;-67
2022/04/09 03:37:45;;;;;;;;;109.40;100.40;26.80;99.90;;;;;;5040459;28;8797;-68
2022/04/09 03:40:13;;;;;;;;;105.20;99.00;26.80;99.90;;;;;;5040829;28;8807;-69
2022/04/09 03:42:40;;;;;;;;;106.20;93.00;26.90;99.90;;;;;;5039862;28;8765;-69
2022/04/09 03:45:07;;;;;;;;;107.20;93.80;27.00;99.90;;;;;;5040634;28;9435;-69
2022/04/09 03:47:34;;;;;;;;;104.60;100.00;27.00;99.90;;;;;;5040035;28;8757;-68
2022/04/09 03:50:04;;;;;;;;;106.00;95.20;27.00;99.90;;;;;;5049281;28;8802;-69
2022/04/09 03:52:31;;;;;;;;;99.20;86.00;27.20;99.90;;;;;;5059818;28;8778;-68
2022/04/09 03:54:58;;;;;;;;;107.00;97.80;27.40;99.90;;;;;;5060796;28;8738;-68
2022/04/09 03:57:25;;;;;;;;;102.40;95.40;27.20;99.90;;;;;;5059720;28;8743;-68
2022/04/09 03:59:55;;;;;;;;;106.00;95.80;27.20;99.90;;;;;;5061020;28;8730;-69
2022/04/09 04:02:24;;;;;;;;;97.60;94.20;27.10;99.90;;;;;;5063248;28;9548;-68
2022/04/09 04:04:51;;;;;;;;;103.60;96.20;27.20;99.90;;;;;;5034199;28;9658;-68
2022/04/09 04:07:22;;;;;;;;;99.00;91.00;27.40;99.90;;;;;;5022862;28;8764;-68
2022/04/09 04:09:49;;;;;;;;;97.80;94.40;27.40;99.90;;;;;;5039717;28;8810;-68
2022/04/09 04:12:16;;;;;;;;;109.00;97.40;27.50;99.90;;;;;;5039691;28;8761;-69
2022/04/09 04:14:43;;;;;;;;;103.40;96.00;27.50;99.90;;;;;;5039516;28;8729;-68
2022/04/09 04:17:10;;;;;;;;;103.40;98.00;27.60;99.90;;;;;;5039707;28;8737;-69
2022/04/09 04:19:37;;;;;;;;;110.60;101.60;27.80;99.90;;;;;;5044923;28;8755;-68
2022/04/09 04:22:04;;;;;;;;;105.00;98.40;27.70;99.90;;;;;;5059705;28;9379;-69
2022/04/09 04:24:31;;;;;;;;;117.40;103.40;27.60;99.90;;;;;;5059142;28;8777;-68
2022/04/09 04:26:59;;;;;;;;;110.20;101.40;27.70;99.90;;;;;;5041908;28;8746;-68
2022/04/09 04:29:26;;;;;;;;;96.60;93.20;27.80;99.90;;;;;;5059226;28;8770;-68
2022/04/09 04:31:53;;;;;;;;;100.20;92.00;28.00;99.90;;;;;;5059636;28;8715;-68
2022/04/09 04:34:20;;;;;;;;;110.00;103.00;28.00;99.90;;;;;;5056439;28;8791;-68
2022/04/09 04:36:46;;;;;;;;;107.40;98.20;28.00;99.90;;;;;;5014060;28;8691;-68
2022/04/09 04:39:13;;;;;;;;;111.40;101.20;28.10;99.90;;;;;;5051495;28;8887;-68
2022/04/09 04:41:39;;;;;;;;;95.00;89.00;28.30;99.90;;;;;;5039063;28;8799;-68
2022/04/09 04:44:07;;;;;;;;;106.80;102.20;28.10;99.90;;;;;;5039406;28;8788;-68
2022/04/09 04:46:36;;;;;;;;;107.60;97.40;27.90;99.90;;;;;;5038970;28;8804;-68
2022/04/09 04:49:03;;;;;;;;;108.00;99.40;27.90;99.90;;;;;;5040783;28;8753;-67
2022/04/09 04:51:30;;;;;;;;;107.80;97.20;27.90;99.90;;;;;;5058544;28;8811;-67
2022/04/09 04:53:58;;;;;;;;;115.60;104.00;28.10;99.90;;;;;;5059558;28;8759;-69
2022/04/09 04:56:25;;;;;;;;;111.40;99.40;28.00;99.90;;;;;;5059181;28;8774;-68
2022/04/09 04:58:52;;;;;;;;;106.20;97.20;28.00;99.90;;;;;;5059038;28;8754;-68
2022/04/09 05:01:18;;;;;;;;;95.40;89.20;28.00;99.90;;;;;;5059394;28;8861;-68
2022/04/09 05:03:45;;;;;;;;;94.80;91.80;28.10;99.90;;;;;;5058525;28;8802;-69
2022/04/09 05:06:12;;;;;;;;;96.40;89.20;28.20;99.90;;;;;;5040015;28;9086;-68
2022/04/09 05:08:40;;;;;;;;;98.80;88.40;28.50;99.90;;;;;;5038452;28;8788;-69
2022/04/09 05:11:09;;;;;;;;;100.00;89.40;28.60;99.90;;;;;;5013974;28;9703;-68
2022/04/09 05:13:39;;;;;;;;;102.40;97.60;28.60;99.90;;;;;;5038171;28;8776;-68
2022/04/09 05:16:06;;;;;;;;;100.40;92.00;28.60;99.90;;;;;;5038953;28;8745;-68
2022/04/09 05:18:33;;;;;;;;;109.40;96.00;28.60;99.90;;;;;;5038476;28;8756;-68
2022/04/09 05:20:59;;;;;;;;;104.80;95.80;28.70;99.90;;;;;;5055412;28;8762;-68
2022/04/09 05:23:26;;;;;;;;;97.60;90.00;28.70;99.90;;;;;;5057906;28;8801;-68
2022/04/09 05:25:53;;;;;;;;;100.00;94.40;28.60;99.90;;;;;;5058603;28;8840;-68
2022/04/09 05:28:22;;;;;;;;;99.40;92.40;28.60;99.90;;;;;;5058855;28;8757;-67
2022/04/09 05:30:52;;;;;;;;;101.00;88.40;29.00;99.90;;;;;;5058554;28;8875;-68
2022/04/09 05:33:19;;;;;;;;;94.40;85.00;28.70;99.90;;;;;;5058290;28;9391;-67
2022/04/09 05:35:46;;;;;;;;;101.00;95.40;28.80;99.90;;;;;;5043223;28;8780;-68
2022/04/09 05:38:13;;;;;;;;;99.00;93.40;28.80;99.90;;;;;;5038412;28;8768;-68
2022/04/09 05:40:40;;;;;;;;;95.40;89.00;28.80;99.90;;;;;;5038130;28;8764;-68
2022/04/09 05:43:07;;;;;;;;;98.60;94.40;29.00;99.90;;;;;;5053945;28;8788;-68
2022/04/09 05:45:34;;;;;;;;;100.40;90.60;29.00;99.90;;;;;;5053328;28;8722;-68
2022/04/09 05:48:02;;;;;;;;;102.60;94.20;29.00;99.90;;;;;;5038176;28;8748;-68
2022/04/09 05:50:28;;;;;;;;;97.20;92.80;28.80;99.90;;;;;;5049376;28;8774;-68
2022/04/09 05:52:55;;;;;;;;;97.00;92.00;28.60;99.90;;;;;;5036995;28;8770;-68
2022/04/09 05:55:22;;;;;;;;;97.60;92.00;28.90;99.90;;;;;;5039372;28;8812;-68
2022/04/09 05:57:49;;;;;;;;;104.00;97.60;28.90;99.90;;;;;;5057496;28;8824;-68
2022/04/09 06:00:16;;;;;;;;;105.80;100.20;29.10;99.90;;;;;;5057605;28;8757;-68
2022/04/09 06:02:44;;;;;;;;;94.40;86.20;29.10;99.90;;;;;;5057695;28;8790;-69
2022/04/09 06:05:11;;;;;;;;;104.80;99.00;29.10;99.90;;;;;;5047521;28;8900;-68
2022/04/09 06:07:37;;;;;;;;;99.80;93.60;29.20;99.90;;;;;;5037107;28;8764;-68
2022/04/09 06:10:06;;;;;;;;;99.00;90.40;29.40;99.90;;;;;;5038122;28;8749;-68
2022/04/09 06:12:33;;;;;;;;;92.80;87.00;29.50;99.90;;;;;;5037032;28;8764;-68
2022/04/09 06:15:01;;;;;;;;;90.80;86.00;29.70;99.90;;;;;;5020392;28;9146;-68
2022/04/09 06:17:28;;;;;;;;;92.40;86.00;29.60;99.90;;;;;;5036927;28;9142;-67
2022/04/09 06:19:54;;;;;;;;;92.20;82.40;29.40;99.90;;;;;;5027495;28;8767;-68
2022/04/09 06:22:21;;;;;;;;;94.00;88.40;29.30;99.90;;;;;;5057758;28;8779;-68
2022/04/09 06:24:48;;;;;;;;;96.20;90.00;29.40;99.90;;;;;;5039655;28;8844;-68
2022/04/09 06:27:15;;;;;;;;;85.60;80.40;29.60;99.90;;;;;;5039612;28;8746;-68
2022/04/09 06:29:44;;;;;;;;;85.20;77.40;29.60;99.90;;;;;;5039364;28;8724;-68
2022/04/09 06:32:11;;;;;;;;;87.60;82.00;29.60;99.90;;;;;;5057240;28;8727;-68
2022/04/09 06:34:38;;;;;;;;;85.80;80.80;29.60;99.90;;;;;;5050723;28;8776;-68
2022/04/09 06:37:05;;;;;;;;;88.00;82.80;29.40;99.90;;;;;;5037500;28;9370;-68
2022/04/09 06:39:31;;;;;;;;;93.40;87.40;29.30;99.90;;;;;;5019342;28;8780;-68
2022/04/09 06:41:58;;;;;;;;;83.00;77.40;29.60;99.90;;;;;;5019497;28;8753;-68
2022/04/09 06:44:25;;;;;;;;;91.80;85.20;29.60;99.90;;;;;;5019065;28;8871;-68
2022/04/09 06:46:52;;;;;;;;;77.40;72.00;29.70;99.90;;;;;;5036772;28;8781;-68
2022/04/09 06:49:21;;;;;;;;;85.20;76.60;29.70;99.90;;;;;;5022607;28;8812;-68
2022/04/09 06:51:48;;;;;;;;;84.80;78.20;29.80;99.90;;;;;;5056539;28;8797;-68
2022/04/09 06:54:15;;;;;;;;;72.20;62.20;29.70;99.90;;;;;;5056691;28;8770;-68
2022/04/09 06:56:44;;;;;;;;;82.80;78.80;29.60;99.90;;;;;;5039359;28;8759;-68
2022/04/09 06:59:10;;;;;;;;;83.00;81.60;29.60;99.90;;;;;;5022323;28;8798;-68
2022/04/09 07:01:37;;;;;;;;;86.60;80.20;29.70;99.90;;;;;;5056076;28;8763;-68
2022/04/09 07:04:04;;;;;;;;;93.20;83.80;29.80;99.90;;;;;;5038608;28;8849;-68
2022/04/09 07:06:31;;;;;;;;;91.60;85.20;29.80;99.90;;;;;;5036468;28;8866;-68
2022/04/09 07:08:58;;;;;;;;;83.40;80.20;30.00;99.90;;;;;;5036571;28;8769;-68
2022/04/09 07:11:25;;;;;;;;;80.80;70.20;29.90;99.90;;;;;;5018889;28;8769;-68
2022/04/09 07:13:51;;;;;;;;;77.20;65.40;29.70;99.90;;;;;;5019220;28;8783;-68
2022/04/09 07:16:18;;;;;;;;;79.40;72.80;29.70;99.90;;;;;;5036734;28;8834;-68
2022/04/09 07:18:45;;;;;;;;;92.00;85.40;29.80;99.90;;;;;;5036380;28;9433;-68
2022/04/09 07:21:12;;;;;;;;;82.20;76.60;29.70;99.90;;;;;;5043481;28;8757;-68
2022/04/09 07:23:38;;;;;;;;;88.40;80.40;29.80;99.90;;;;;;5056273;28;8798;-68
2022/04/09 07:26:05;;;;;;;;;84.60;78.60;29.80;99.90;;;;;;5038660;28;8755;-68
2022/04/09 07:28:32;;;;;;;;;83.20;74.80;29.90;99.90;;;;;;5055930;28;8769;-69
2022/04/09 07:30:59;;;;;;;;;78.80;70.40;30.00;99.90;;;;;;5056931;28;8727;-68
2022/04/09 07:33:25;;;;;;;;;82.40;75.40;30.10;99.90;;;;;;5038493;28;8735;-67
2022/04/09 07:35:53;;;;;;;;;82.40;74.00;29.90;99.90;;;;;;5022796;28;9533;-68
2022/04/09 07:38:20;;;;;;;;;79.00;71.80;30.10;99.90;;;;;;5036199;28;8753;-67
2022/04/09 07:40:47;;;;;;;;;81.20;74.40;30.20;99.90;;;;;;5036318;28;8760;-68
2022/04/09 07:43:13;;;;;;;;;84.40;79.20;30.20;99.90;;;;;;5019131;28;8789;-68
2022/04/09 07:45:40;;;;;;;;;79.20;73.40;30.20;99.90;;;;;;5036265;28;8729;-69
2022/04/09 07:48:07;;;;;;;;;75.20;68.20;30.10;99.90;;;;;;5036592;28;9022;-69
2022/04/09 07:50:34;;;;;;;;;78.60;71.80;30.10;99.90;;;;;;5031171;28;8762;-69
2022/04/09 07:53:01;;;;;;;;;79.00;70.80;30.20;99.90;;;;;;5056019;28;8794;-68
2022/04/09 07:55:28;;;;;;;;;77.20;70.60;30.40;99.90;;;;;;5055892;28;8755;-68
2022/04/09 07:57:58;;;;;;;;;78.00;70.80;30.20;99.90;;;;;;5056825;28;8738;-69
2022/04/09 08:00:24;;;;;;;;;72.60;61.40;30.10;99.90;;;;;;5055930;28;8730;-68
2022/04/09 08:02:51;;;;;;;;;77.40;67.40;30.10;99.90;;;;;;5056223;28;8876;-69
2022/04/09 08:05:18;;;;;;;;;76.60;68.20;30.40;99.90;;;;;;5027353;28;8761;-67
2022/04/09 08:07:46;;;;;;;;;76.40;65.00;30.40;99.90;;;;;;5036297;28;8807;-68
2022/04/09 08:10:12;;;;;;;;;81.20;73.00;30.30;99.90;;;;;;5036494;28;8755;-68
2022/04/09 08:12:41;;;;;;;;;77.40;69.20;30.30;99.90;;;;;;5036725;28;8846;-68
2022/04/09 08:15:09;;;;;;;;;74.20;65.80;30.20;99.90;;;;;;5039567;28;8850;-68
2022/04/09 08:17:39;;;;;;;;;80.20;69.20;30.00;99.90;;;;;;5039778;28;8761;-68
2022/04/09 08:20:07;;;;;;;;;78.40;70.40;29.90;99.90;;;;;;5064426;28;8770;-68
2022/04/09 08:22:34;;;;;;;;;77.20;69.80;29.90;99.90;;;;;;5024750;28;8775;-68
2022/04/09 08:25:02;;;;;;;;;82.60;72.60;29.90;99.90;;;;;;5042657;28;8723;-69
2022/04/09 08:27:29;;;;;;;;;82.80;74.80;29.90;99.90;;;;;;5059353;28;10118;-68
2022/04/09 08:29:56;;;;;;;;;82.60;73.20;29.60;99.90;;;;;;5041764;28;8738;-68
2022/04/09 08:32:25;;;;;;;;;78.20;69.60;29.70;99.90;;;;;;5059334;28;8727;-68
2022/04/09 08:34:53;;;;;;;;;78.60;70.80;29.80;99.90;;;;;;5034694;28;9422;-69
2022/04/09 08:37:22;;;;;;;;;78.80;70.40;29.80;99.90;;;;;;5055218;28;8729;-68
2022/04/09 08:39:50;;;;;;;;;75.20;65.00;29.70;99.90;;;;;;5022393;28;8721;-68
2022/04/09 08:42:16;;;;;;;;;76.80;66.80;29.80;99.90;;;;;;5039259;28;8780;-68
2022/04/09 08:44:43;;;;;;;;;80.00;72.00;29.90;99.90;;;;;;5021403;28;8769;-68
2022/04/09 08:47:12;;;;;;;;;72.80;62.00;30.00;99.90;;;;;;5021248;28;8773;-69
2022/04/09 08:49:40;;;;;;;;;76.80;66.80;30.00;99.90;;;;;;5026649;28;8759;-68
2022/04/09 08:52:10;;;;;;;;;78.20;71.80;30.00;99.90;;;;;;5059379;28;8786;-68
2022/04/09 08:54:40;;;;;;;;;76.80;66.60;29.80;99.90;;;;;;5040736;28;8863;-69
2022/04/09 08:57:07;;;;;;;;;76.40;69.40;29.70;99.90;;;;;;5058375;28;8896;-68
2022/04/09 08:59:34;;;;;;;;;75.20;67.20;29.80;99.90;;;;;;5058683;28;8758;-68
2022/04/09 09:02:01;;;;;;;;;76.20;67.40;29.80;99.90;;;;;;5058858;28;8798;-68
2022/04/09 09:04:27;;;;;;;;;82.60;73.40;29.70;99.90;;;;;;5036470;28;8757;-67
2022/04/09 09:06:54;;;;;;;;;78.00;68.20;29.60;99.90;;;;;;5040072;28;8769;-69
2022/04/09 09:09:29;;;;;;;;;86.20;77.80;29.70;99.90;;;;;;5038317;28;8749;-68
2022/04/09 09:12:00;;;;;;;;;77.60;64.60;29.70;99.90;;;;;;5038667;28;8846;-68
2022/04/09 09:14:32;;;;;;;;;78.00;67.20;29.70;99.90;;;;;;5038375;28;8830;-68
2022/04/09 09:17:00;;;;;;;;;75.80;67.20;30.00;99.90;;;;;;5039039;28;9088;-68
2022/04/09 09:19:41;;;;;;;;;79.80;72.60;30.00;99.90;;;;;;5025035;28;8901;-68
2022/04/09 09:22:08;;;;;;;;;63.60;48.60;30.00;99.90;;;;;;5059248;28;8815;-68
2022/04/09 09:24:35;;;;;;;;;74.80;67.40;29.80;99.90;;;;;;5040234;28;8775;-68
2022/04/09 09:27:02;;;;;;;;;76.20;68.00;29.80;99.90;;;;;;5058570;28;8770;-68
2022/04/09 09:29:30;;;;;;;;;79.00;71.40;29.60;99.90;;;;;;5057934;28;8770;-68
2022/04/09 09:31:58;;;;;;;;;78.00;71.60;29.50;99.90;;;;;;5058312;28;8889;-69
2022/04/09 09:34:25;;;;;;;;;83.80;74.60;29.60;99.90;;;;;;5054237;28;9480;-67
2022/04/09 09:36:52;;;;;;;;;78.00;69.80;29.80;99.90;;;;;;5038517;28;8745;-68
2022/04/09 09:39:23;;;;;;;;;78.60;69.40;29.90;99.90;;;;;;5038292;28;8799;-68
2022/04/09 09:41:57;;;;;;;;;79.20;71.60;30.00;99.90;;;;;;5020604;28;8819;-68
2022/04/09 09:44:27;;;;;;;;;80.80;71.60;30.00;99.90;;;;;;5037862;28;8887;-68
2022/04/09 09:46:55;;;;;;;;;77.40;69.40;30.00;99.90;;;;;;5020561;28;8757;-69
2022/04/09 09:49:24;;;;;;;;;76.80;67.00;30.00;99.90;;;;;;5040230;28;8732;-68
2022/04/09 09:52:09;;;;;;;;;73.40;58.60;30.00;99.90;;;;;;5058188;28;8794;-69
2022/04/09 09:54:55;;;;;;;;;76.40;67.80;29.90;99.90;;;;;;5057499;28;8786;-69
2022/04/09 09:57:22;;;;;;;;;79.80;68.60;29.90;99.90;;;;;;5057764;28;9065;-68
2022/04/09 09:59:51;;;;;;;;;79.00;66.40;30.00;99.90;;;;;;5057772;28;8771;-68
2022/04/09 10:02:22;;;;;;;;;80.60;67.60;29.90;99.90;;;;;;5057586;28;8787;-67
2022/04/09 10:04:49;;;;;;;;;75.00;65.00;30.10;99.90;;;;;;5050652;28;8830;-69
2022/04/09 10:07:16;;;;;;;;;76.60;69.80;30.10;99.90;;;;;;5021119;28;8737;-69
2022/04/09 10:09:44;;;;;;;;;75.40;66.60;30.00;99.90;;;;;;5037639;28;8740;-69
2022/04/09 10:12:13;;;;;;;;;79.80;69.60;30.10;99.90;;;;;;5020406;28;8832;-69
2022/04/09 10:14:40;;;;;;;;;74.40;64.00;30.20;99.90;;;;;;5019872;28;8795;-69
2022/04/09 10:17:10;;;;;;;;;76.20;65.00;30.30;99.90;;;;;;5037644;28;8769;-69
2022/04/09 10:19:43;;;;;;;;;79.20;71.40;30.30;99.90;;;;;;5042524;28;8762;-68
2022/04/09 10:22:11;;;;;;;;;73.40;64.40;30.30;99.90;;;;;;5058216;28;8739;-69
2022/04/09 10:24:37;;;;;;;;;73.60;65.40;30.30;99.90;;;;;;5039412;28;8759;-68
2022/04/09 10:27:06;;;;;;;;;81.80;73.20;30.20;99.90;;;;;;5040009;28;8832;-69
2022/04/09 10:29:49;;;;;;;;;73.20;62.40;30.30;99.90;;;;;;5039562;28;8775;-69
2022/04/09 10:32:41;;;;;;;;;78.60;69.40;30.30;99.90;;;;;;5057073;28;8885;-69
2022/04/09 10:35:40;;;;;;;;;77.00;70.40;30.20;99.90;;;;;;5046801;28;9202;-69
2022/04/09 10:38:10;;;;;;;;;81.60;76.20;30.30;99.90;;;;;;5020768;28;8753;-69
2022/04/09 10:41:03;;;;;;;;;80.20;71.00;30.20;99.90;;;;;;5036568;28;8794;-68
2022/04/09 10:43:39;;;;;;;;;76.20;70.20;30.20;99.90;;;;;;5037155;28;8820;-68
2022/04/09 10:46:06;;;;;;;;;79.40;73.60;30.10;99.90;;;;;;5038178;28;8737;-68
2022/04/09 10:48:33;;;;;;;;;80.00;74.80;30.00;99.90;;;;;;5036640;28;8760;-69
2022/04/09 10:51:08;;;;;;;;;90.80;81.60;29.90;99.90;;;;;;5053217;28;8767;-68
2022/04/09 10:53:35;;;;;;;;;107.80;96.20;30.00;99.90;;;;;;5056505;28;9423;-68
2022/04/09 10:56:12;;;;;;;;;103.60;94.00;29.90;99.90;;;;;;5056453;28;8759;-69
2022/04/09 10:59:16;;;;;;;;;91.80;85.20;29.90;99.90;;;;;;5057001;28;8759;-68
2022/04/09 11:01:46;;;;;;;;;92.40;86.80;29.70;99.90;;;;;;5057277;28;8778;-68
2022/04/09 11:04:41;;;;;;;;;92.20;90.80;29.60;99.90;;;;;;5070366;28;8889;-69
2022/04/09 11:07:17;;;;;;;;;107.60;101.20;29.60;99.90;;;;;;5037763;28;8799;-69
2022/04/09 11:09:54;;;;;;;;;105.40;99.00;29.50;99.90;;;;;;5020567;28;8824;-69
2022/04/09 11:12:24;;;;;;;;;93.00;88.40;29.50;99.90;;;;;;5036932;28;8812;-67
2022/04/09 11:14:54;;;;;;;;;100.00;92.20;29.40;99.90;;;;;;5037289;28;8932;-68
2022/04/09 11:17:36;;;;;;;;;81.40;72.40;29.40;99.90;;;;;;5036390;28;8769;-68
2022/04/09 11:20:07;;;;;;;;;88.40;79.00;29.40;99.90;;;;;;5045820;28;8758;-68
2022/04/09 11:22:36;;;;;;;;;91.20;83.40;29.50;99.90;;;;;;5038551;28;9500;-68
2022/04/09 11:25:04;;;;;;;;;87.20;82.60;29.50;99.90;;;;;;5039205;28;8763;-69
2022/04/09 11:27:30;;;;;;;;;92.80;82.20;29.50;99.90;;;;;;5056201;28;8763;-68
2022/04/09 11:29:57;;;;;;;;;76.40;71.60;29.40;99.90;;;;;;5056329;28;8801;-69
2022/04/09 11:32:24;;;;;;;;;79.80;72.00;29.40;99.90;;;;;;5056019;28;8762;-68
2022/04/09 11:34:59;;;;;;;;;90.40;76.40;29.40;99.90;;;;;;5048966;28;8776;-69
2022/04/09 11:37:32;;;;;;;;;86.60;81.60;29.40;99.90;;;;;;5036185;28;8851;-68
2022/04/09 11:40:04;;;;;;;;;89.40;87.20;29.30;99.90;;;;;;5037297;28;8859;-69
2022/04/09 11:42:47;;;;;;;;;93.40;88.60;29.30;99.90;;;;;;5036303;28;8837;-68
2022/04/09 11:45:27;;;;;;;;;107.60;94.80;29.30;99.90;;;;;;5019988;28;8804;-69
2022/04/09 11:47:59;;;;;;;;;100.80;93.40;29.30;99.90;;;;;;5038666;28;8769;-69
2022/04/09 11:50:32;;;;;;;;;103.20;91.40;29.20;99.90;;;;;;5034774;28;8755;-68
2022/04/09 11:53:20;;;;;;;;;102.20;88.80;29.20;99.90;;;;;;5061079;28;8770;-68
2022/04/09 11:55:47;;;;;;;;;96.60;87.60;29.10;99.90;;;;;;5070165;28;8747;-69
2022/04/09 11:58:15;;;;;;;;;109.80;93.00;29.10;99.90;;;;;;5060986;28;8804;-69
2022/04/09 12:00:46;;;;;;;;;95.60;90.00;29.10;99.90;;;;;;5042161;28;8755;-68
2022/04/09 12:03:13;;;;;;;;;87.60;77.40;29.00;99.90;;;;;;5059893;28;8806;-69
2022/04/09 12:05:46;;;;;;;;;89.40;80.20;29.00;99.90;;;;;;5028499;28;8839;-69
2022/04/09 12:08:14;;;;;;;;;90.20;80.40;29.10;99.90;;;;;;5040092;28;8830;-69
2022/04/09 12:11:00;;;;;;;;;82.40;77.40;29.10;99.90;;;;;;5022175;28;8722;-68
2022/04/09 12:13:37;;;;;;;;;81.80;73.00;29.10;99.90;;;;;;5022523;28;8792;-68
2022/04/09 12:16:10;;;;;;;;;84.60;80.60;29.00;99.90;;;;;;5013548;28;8753;-69
2022/04/09 12:18:37;;;;;;;;;87.80;84.00;29.00;99.90;;;;;;5039788;28;8911;-69
2022/04/09 12:21:39;;;;;;;;;82.60;77.00;28.90;99.90;;;;;;5056629;28;8836;-69
2022/04/09 12:24:13;;;;;;;;;88.80;79.00;28.80;99.90;;;;;;4978759;28;10738;-69
2022/04/09 12:26:40;;;;;;;;;90.80;84.00;28.80;99.90;;;;;;5030616;28;8762;-69
2022/04/09 12:29:22;;;;;;;;;82.00;76.00;28.80;99.90;;;;;;5059563;28;8759;-69
2022/04/09 12:31:53;;;;;;;;;85.60;79.60;28.80;99.90;;;;;;5041889;28;8789;-69
2022/04/09 12:34:20;;;;;;;;;86.00;76.20;28.80;99.90;;;;;;5039852;28;8785;-67
2022/04/09 12:37:13;;;;;;;;;84.80;77.00;28.80;99.90;;;;;;5039640;28;8802;-69
2022/04/09 12:39:40;;;;;;;;;90.20;82.80;28.80;99.90;;;;;;5036057;28;8777;-69